Time;durP1;ratioP1;P1;durP2;ratioP2;P2;SDS_P1;SDS_P2;PMS_P1;PMS_P2;Temp;Humidity;BMP_temperature;BMP_pressure;BME280_temperature;BME280_humidity;BME280_pressure;Samples;Min_cycle;Max_cycle;Signal;HPM_P1;HPM_P2
2022/10/04 00:00:24;;;;;;;18.40;9.67;;;;;;;;;;4963561;28;20042;-64
2022/10/04 00:02:51;;;;;;;25.83;9.90;;;;;;;;;;4966162;28;20047;-64
2022/10/04 00:05:18;;;;;;;24.23;9.27;;;;;;;;;;4955869;28;20051;-64
2022/10/04 00:07:46;;;;;;;19.43;8.63;;;;;;;;;;4960591;28;20043;-64
2022/10/04 00:10:18;;;;;;;22.70;9.80;;;;;;;;;;4960056;28;20520;-64
2022/10/04 00:12:47;;;;;;;21.73;9.30;;;;;;;;;;4962035;28;20042;-64
2022/10/04 00:15:20;;;;;;;17.60;8.83;;;;;;;;;;4962431;28;20401;-64
2022/10/04 00:17:59;;;;;;;21.70;9.77;;;;;;;;;;4962993;28;20126;-64
2022/10/04 00:20:43;;;;;;;19.27;8.60;;;;;;;;;;4958514;28;20078;-64
2022/10/04 00:23:25;;;;;;;19.47;10.27;;;;;;;;;;4959900;28;20102;-65
2022/10/04 00:25:52;;;;;;;19.67;8.93;;;;;;;;;;4961745;28;20125;-64
2022/10/04 00:28:23;;;;;;;18.83;9.47;;;;;;;;;;4955768;28;20043;-64
2022/10/04 00:31:08;;;;;;;24.27;8.73;;;;;;;;;;4960533;28;20062;-65
2022/10/04 00:33:38;;;;;;;15.80;9.63;;;;;;;;;;4958093;28;20058;-64
2022/10/04 00:36:22;;;;;;;19.03;8.50;;;;;;;;;;4952826;28;20047;-64
2022/10/04 00:39:13;;;;;;;17.83;8.23;;;;;;;;;;4950187;29;20043;-64
2022/10/04 00:41:48;;;;;;;20.13;7.73;;;;;;;;;;4967976;28;20058;-64
2022/10/04 00:44:18;;;;;;;15.70;8.03;;;;;;;;;;4969752;28;20075;-64
2022/10/04 00:46:46;;;;;;;23.33;8.53;;;;;;;;;;4950333;29;20044;-64
2022/10/04 00:49:12;;;;;;;17.27;8.43;;;;;;;;;;4950386;28;20051;-64
2022/10/04 00:51:58;;;;;;;15.53;8.07;;;;;;;;;;4969441;28;20782;-64
2022/10/04 00:54:30;;;;;;;17.07;7.77;;;;;;;;;;4969449;28;20756;-64
2022/10/04 00:56:58;;;;;;;18.60;7.90;;;;;;;;;;4971418;28;20039;-64
2022/10/04 00:59:24;;;;;;;18.50;7.63;;;;;;;;;;4973684;28;20106;-64
2022/10/04 01:01:52;;;;;;;20.23;8.07;;;;;;;;;;4973827;28;20500;-64
2022/10/04 01:04:28;;;;;;;20.53;8.33;;;;;;;;;;4973920;28;20385;-64
2022/10/04 01:06:56;;;;;;;21.13;8.43;;;;;;;;;;4973096;28;20475;-64
2022/10/04 01:09:23;;;;;;;16.23;7.17;;;;;;;;;;4972497;28;20051;-64
2022/10/04 01:11:56;;;;;;;19.53;7.63;;;;;;;;;;4964060;28;20051;-64
2022/10/04 01:14:48;;;;;;;15.20;7.93;;;;;;;;;;4958779;28;20046;-64
2022/10/04 01:17:14;;;;;;;19.23;7.80;;;;;;;;;;4970844;28;20051;-64
2022/10/04 01:19:50;;;;;;;13.13;6.93;;;;;;;;;;4973091;28;20047;-64
2022/10/04 01:22:34;;;;;;;16.73;8.20;;;;;;;;;;4973879;28;20047;-64
2022/10/04 01:25:00;;;;;;;17.63;8.07;;;;;;;;;;4972450;28;20077;-64
2022/10/04 01:27:39;;;;;;;14.27;7.60;;;;;;;;;;4973615;28;20054;-65
2022/10/04 01:30:09;;;;;;;23.53;7.50;;;;;;;;;;4973339;28;20063;-65
2022/10/04 01:32:37;;;;;;;19.97;6.87;;;;;;;;;;4973483;28;20584;-64
2022/10/04 01:35:03;;;;;;;19.23;8.43;;;;;;;;;;4973024;28;20050;-64
2022/10/04 01:37:29;;;;;;;15.97;8.17;;;;;;;;;;4973734;28;20503;-64
2022/10/04 01:39:56;;;;;;;16.87;7.33;;;;;;;;;;4973393;28;20155;-64
2022/10/04 01:42:25;;;;;;;15.93;7.93;;;;;;;;;;4972855;28;20078;-64
2022/10/04 01:44:57;;;;;;;22.43;8.33;;;;;;;;;;4973347;28;20050;-64
2022/10/04 01:47:34;;;;;;;16.97;7.97;;;;;;;;;;4973240;28;20201;-64
2022/10/04 01:50:07;;;;;;;17.30;7.53;;;;;;;;;;4973021;28;20042;-64
2022/10/04 01:52:35;;;;;;;17.90;8.20;;;;;;;;;;4972461;28;20043;-64
2022/10/04 01:55:27;;;;;;;15.17;7.93;;;;;;;;;;4973091;28;20046;-64
2022/10/04 01:58:03;;;;;;;13.93;7.87;;;;;;;;;;4971068;28;20066;-64
2022/10/04 02:00:30;;;;;;;17.57;8.47;;;;;;;;;;4972765;28;20493;-64
2022/10/04 02:02:58;;;;;;;27.00;8.80;;;;;;;;;;4972631;28;20057;-64
2022/10/04 02:05:28;;;;;;;20.90;10.30;;;;;;;;;;4972816;28;20208;-64
2022/10/04 02:07:55;;;;;;;15.73;9.50;;;;;;;;;;4971464;28;20066;-64
2022/10/04 02:10:22;;;;;;;18.80;9.67;;;;;;;;;;4971308;28;20408;-65
2022/10/04 02:12:51;;;;;;;22.33;10.47;;;;;;;;;;4956560;28;20102;-63
2022/10/04 02:15:19;;;;;;;20.73;13.23;;;;;;;;;;4971456;28;20047;-63
2022/10/04 02:17:46;;;;;;;21.90;10.43;;;;;;;;;;4972916;28;20623;-63
2022/10/04 02:20:16;;;;;;;22.83;10.53;;;;;;;;;;4973003;28;20104;-63
2022/10/04 02:22:43;;;;;;;30.37;11.13;;;;;;;;;;4972127;28;20043;-63
2022/10/04 02:25:10;;;;;;;26.67;12.30;;;;;;;;;;4972517;28;20050;-62
2022/10/04 02:27:36;;;;;;;22.73;11.40;;;;;;;;;;4972580;28;20059;-63
2022/10/04 02:30:04;;;;;;;28.67;11.90;;;;;;;;;;4971934;28;20059;-63
2022/10/04 02:35:16;;;;;;;23.07;12.07;;;;;;;;;;4972476;28;20051;-63
2022/10/04 02:37:42;;;;;;;24.33;14.03;;;;;;;;;;4972125;28;20125;-63
2022/10/04 02:40:11;;;;;;;27.20;13.07;;;;;;;;;;4972005;28;20093;-63
2022/10/04 02:42:39;;;;;;;26.77;15.13;;;;;;;;;;4971778;28;20046;-63
2022/10/04 02:45:24;;;;;;;26.70;13.33;;;;;;;;;;4972025;28;20058;-63
2022/10/04 02:48:00;;;;;;;27.80;14.90;;;;;;;;;;4972208;28;20131;-63
2022/10/04 02:50:31;;;;;;;32.13;16.00;;;;;;;;;;4971953;28;20090;-63
2022/10/04 02:52:59;;;;;;;31.17;15.47;;;;;;;;;;4971388;28;20121;-62
2022/10/04 02:55:32;;;;;;;30.40;16.47;;;;;;;;;;4971974;28;20527;-63
2022/10/04 02:57:59;;;;;;;31.55;16.30;;;;;;;;;;4971949;28;20047;-63
2022/10/04 03:00:28;;;;;;;27.87;16.23;;;;;;;;;;4971892;28;20296;-63
2022/10/04 03:03:17;;;;;;;31.57;16.90;;;;;;;;;;4971264;28;20051;-63
2022/10/04 03:05:55;;;;;;;34.87;18.60;;;;;;;;;;4971741;28;20050;-63
2022/10/04 03:08:21;;;;;;;33.90;18.50;;;;;;;;;;4971748;28;20465;-63
2022/10/04 03:10:47;;;;;;;31.93;18.17;;;;;;;;;;4971621;28;20412;-63
2022/10/04 03:13:15;;;;;;;32.63;17.47;;;;;;;;;;4971602;28;20526;-63
2022/10/04 03:15:42;;;;;;;28.47;17.17;;;;;;;;;;4971329;28;20530;-63
2022/10/04 03:18:09;;;;;;;30.30;18.30;;;;;;;;;;4971626;28;20046;-63
2022/10/04 03:20:39;;;;;;;39.23;18.73;;;;;;;;;;4971025;28;20110;-62
2022/10/04 03:23:05;;;;;;;37.77;19.37;;;;;;;;;;4971418;28;20535;-63
2022/10/04 03:25:43;;;;;;;30.13;18.73;;;;;;;;;;4971380;28;20065;-63
2022/10/04 03:28:09;;;;;;;43.27;20.73;;;;;;;;;;4971258;28;20049;-63
2022/10/04 03:30:35;;;;;;;31.73;19.37;;;;;;;;;;4970657;28;20051;-62
2022/10/04 03:33:02;;;;;;;34.77;19.20;;;;;;;;;;4971402;28;20481;-63
2022/10/04 03:35:36;;;;;;;33.03;19.70;;;;;;;;;;4970190;28;20408;-63
2022/10/04 03:38:02;;;;;;;;;;;;;;;;;;4971524;28;20053;-63
2022/10/04 03:40:31;;;;;;;38.57;19.27;;;;;;;;;;4971092;28;19922;-63
2022/10/04 03:42:59;;;;;;;40.00;19.87;;;;;;;;;;4970496;28;20046;-63
2022/10/04 03:45:27;;;;;;;38.47;19.73;;;;;;;;;;4968803;28;20129;-63
2022/10/04 03:47:54;;;;;;;38.53;17.83;;;;;;;;;;4970254;28;20095;-63
2022/10/04 03:50:33;;;;;;;38.37;19.83;;;;;;;;;;4970241;28;20058;-63
2022/10/04 03:53:05;;;;;;;29.47;16.57;;;;;;;;;;4968088;28;20097;-63
2022/10/04 03:55:33;;;;;;;32.90;18.73;;;;;;;;;;4969685;28;20054;-63
2022/10/04 03:58:00;;;;;;;34.67;18.97;;;;;;;;;;4970069;28;20051;-63
2022/10/04 04:00:26;;;;;;;42.77;19.97;;;;;;;;;;4970102;28;20057;-63
2022/10/04 04:02:55;;;;;;;42.50;19.30;;;;;;;;;;4969017;28;20039;-63
2022/10/04 04:05:39;;;;;;;37.07;22.33;;;;;;;;;;4969764;28;20484;-63
2022/10/04 04:08:13;;;;;;;44.70;23.37;;;;;;;;;;4970042;28;20058;-63
2022/10/04 04:11:06;;;;;;;42.77;23.23;;;;;;;;;;4969251;28;20042;-63
2022/10/04 04:13:44;;;;;;;39.27;23.37;;;;;;;;;;4946913;29;20059;-62
2022/10/04 04:16:11;;;;;;;47.33;24.57;;;;;;;;;;4950656;29;20051;-63
2022/10/04 04:18:39;;;;;;;51.77;25.07;;;;;;;;;;4950691;28;20413;-63
2022/10/04 04:21:06;;;;;;;45.63;25.07;;;;;;;;;;4957348;28;20051;-63
2022/10/04 04:23:37;;;;;;;49.93;27.33;;;;;;;;;;4970109;28;20046;-62
2022/10/04 04:26:21;;;;;;;48.77;27.63;;;;;;;;;;4969835;28;20050;-63
2022/10/04 04:28:50;;;;;;;52.00;26.27;;;;;;;;;;4968144;28;20162;-63
2022/10/04 04:31:20;;;;;;;50.57;28.37;;;;;;;;;;4967297;28;20295;-63
2022/10/04 04:33:47;;;;;;;61.30;29.23;;;;;;;;;;4973181;28;20513;-63
2022/10/04 04:36:14;;;;;;;63.90;32.40;;;;;;;;;;4970642;28;20055;-63
2022/10/04 04:41:26;;;;;;;67.97;32.90;;;;;;;;;;4973558;28;20094;-63
2022/10/04 04:43:52;;;;;;;54.03;29.47;;;;;;;;;;4965286;28;20050;-63
2022/10/04 04:46:19;;;;;;;59.20;29.50;;;;;;;;;;4958952;28;20039;-63
2022/10/04 04:48:48;;;;;;;54.37;29.57;;;;;;;;;;4954983;28;20194;-63
2022/10/04 04:51:21;;;;;;;62.63;31.07;;;;;;;;;;4973166;28;20043;-63
2022/10/04 04:53:48;;;;;;;58.05;30.67;;;;;;;;;;4972731;28;20378;-63
2022/10/04 04:56:18;;;;;;;62.77;30.73;;;;;;;;;;4970476;28;20051;-62
2022/10/04 04:58:45;;;;;;;55.77;28.30;;;;;;;;;;4970572;28;20035;-62
2022/10/04 05:01:22;;;;;;;57.97;28.60;;;;;;;;;;4970594;28;20047;-62
2022/10/04 05:04:06;;;;;;;55.93;27.23;;;;;;;;;;4971195;28;20556;-63
2022/10/04 05:06:34;;;;;;;54.67;27.73;;;;;;;;;;4971102;28;20485;-63
2022/10/04 05:09:00;;;;;;;63.47;31.30;;;;;;;;;;4971121;28;20053;-62
2022/10/04 05:11:29;;;;;;;53.30;29.27;;;;;;;;;;4972469;28;20051;-63
2022/10/04 05:13:59;;;;;;;61.80;32.67;;;;;;;;;;4972900;28;20082;-63
2022/10/04 05:16:31;;;;;;;51.90;28.40;;;;;;;;;;4972370;28;20053;-63
2022/10/04 05:18:59;;;;;;;65.03;31.50;;;;;;;;;;4972411;28;20504;-63
2022/10/04 05:21:29;;;;;;;60.63;31.13;;;;;;;;;;4972017;28;20061;-63
2022/10/04 05:23:57;;;;;;;70.13;33.17;;;;;;;;;;4972671;28;20451;-63
2022/10/04 05:26:26;;;;;;;66.37;33.83;;;;;;;;;;4976641;28;20057;-63
2022/10/04 05:28:53;;;;;;;63.67;33.87;;;;;;;;;;4976606;28;20121;-63
2022/10/04 05:31:26;;;;;;;63.00;32.03;;;;;;;;;;4970163;28;20055;-63
2022/10/04 05:33:57;;;;;;;66.17;34.23;;;;;;;;;;4971701;28;20042;-62
2022/10/04 05:36:46;;;;;;;69.77;34.83;;;;;;;;;;4968199;28;20051;-63
2022/10/04 05:39:24;;;;;;;66.30;35.40;;;;;;;;;;4969307;28;20098;-63
2022/10/04 05:41:54;;;;;;;73.10;35.97;;;;;;;;;;4971068;28;20073;-62
2022/10/04 05:44:26;;;;;;;65.67;34.90;;;;;;;;;;4969119;28;20082;-63
2022/10/04 05:46:55;;;;;;;62.55;33.83;;;;;;;;;;4971961;28;20039;-63
2022/10/04 05:49:22;;;;;;;67.90;36.27;;;;;;;;;;4971922;28;20047;-63
2022/10/04 05:51:50;;;;;;;88.40;40.80;;;;;;;;;;4971047;28;20073;-63
2022/10/04 05:54:21;;;;;;;55.23;32.17;;;;;;;;;;4970565;28;20104;-63
2022/10/04 05:56:50;;;;;;;68.57;36.97;;;;;;;;;;4971621;28;20043;-63
2022/10/04 05:59:19;;;;;;;68.80;36.53;;;;;;;;;;4971561;28;20138;-63
2022/10/04 06:01:56;;;;;;;62.60;33.97;;;;;;;;;;4971494;28;20046;-63
2022/10/04 06:04:34;;;;;;;64.83;36.03;;;;;;;;;;4952708;29;20578;-63
2022/10/04 06:07:03;;;;;;;89.40;37.73;;;;;;;;;;4952834;29;20051;-63
2022/10/04 06:09:40;;;;;;;69.80;33.30;;;;;;;;;;4954619;28;20129;-63
2022/10/04 06:12:29;;;;;;;63.20;34.93;;;;;;;;;;4971543;28;20043;-63
2022/10/04 06:14:58;;;;;;;76.30;38.30;;;;;;;;;;4972358;28;20086;-63
2022/10/04 06:17:47;;;;;;;60.50;34.57;;;;;;;;;;4955117;28;20055;-63
2022/10/04 06:20:29;;;;;;;61.33;34.53;;;;;;;;;;4943151;28;20086;-63
2022/10/04 06:22:58;;;;;;;64.03;35.43;;;;;;;;;;4971789;28;20043;-63
2022/10/04 06:25:25;;;;;;;71.07;36.60;;;;;;;;;;4971279;28;20421;-63
2022/10/04 06:28:10;;;;;;;60.17;34.27;;;;;;;;;;4971181;28;20043;-63
2022/10/04 06:30:52;;;;;;;60.57;35.13;;;;;;;;;;4969471;28;20444;-63
2022/10/04 06:33:21;;;;;;;67.67;37.70;;;;;;;;;;4971719;28;20095;-63
2022/10/04 06:35:47;;;;;;;62.40;37.63;;;;;;;;;;4970976;28;20141;-63
2022/10/04 06:38:30;;;;;;;69.17;39.23;;;;;;;;;;4970132;28;20093;-63
2022/10/04 06:41:06;;;;;;;73.95;37.30;;;;;;;;;;4969631;28;20142;-63
2022/10/04 06:43:32;;;;;;;65.93;38.07;;;;;;;;;;4970954;28;20053;-63
2022/10/04 06:46:01;;;;;;;61.33;34.80;;;;;;;;;;4971065;28;20046;-63
2022/10/04 06:48:27;;;;;;;69.87;39.63;;;;;;;;;;4970792;28;20121;-63
2022/10/04 06:51:11;;;;;;;60.77;37.17;;;;;;;;;;4970372;28;20046;-63
2022/10/04 06:53:48;;;;;;;65.30;36.70;;;;;;;;;;4969795;28;20383;-63
2022/10/04 06:56:26;;;;;;;60.93;35.43;;;;;;;;;;4970585;28;20130;-63
2022/10/04 06:58:52;;;;;;;67.47;38.20;;;;;;;;;;4971105;28;20140;-63
2022/10/04 07:01:22;;;;;;;59.97;35.37;;;;;;;;;;4970364;28;20050;-63
2022/10/04 07:04:06;;;;;;;54.50;34.07;;;;;;;;;;4970914;28;20097;-63
2022/10/04 07:06:47;;;;;;;62.83;35.90;;;;;;;;;;4970902;28;20389;-63
2022/10/04 07:09:20;;;;;;;53.97;35.77;;;;;;;;;;4970861;28;20416;-63
2022/10/04 07:11:49;;;;;;;58.75;35.63;;;;;;;;;;4970307;28;20039;-63
2022/10/04 07:14:18;;;;;;;51.90;33.80;;;;;;;;;;4970883;28;20047;-63
2022/10/04 07:16:48;;;;;;;59.47;35.07;;;;;;;;;;4970428;28;20101;-63
2022/10/04 07:19:33;;;;;;;58.00;37.50;;;;;;;;;;4969615;28;20102;-63
2022/10/04 07:22:04;;;;;;;52.70;32.67;;;;;;;;;;4969234;28;20093;-63
2022/10/04 07:24:49;;;;;;;57.90;33.33;;;;;;;;;;4968761;28;20058;-63
2022/10/04 07:27:35;;;;;;;45.33;31.47;;;;;;;;;;4970616;28;20039;-63
2022/10/04 07:30:04;;;;;;;50.90;33.90;;;;;;;;;;4970289;28;20054;-63
2022/10/04 07:32:37;;;;;;;50.40;32.33;;;;;;;;;;4970518;28;20432;-63
2022/10/04 07:35:03;;;;;;;;;;;;;;;;;;4970118;28;20058;-63
2022/10/04 07:37:31;;;;;;;50.00;33.23;;;;;;;;;;4964625;28;20287;-63
2022/10/04 07:40:20;;;;;;;48.23;28.97;;;;;;;;;;4977800;28;20106;-63
2022/10/04 07:42:48;;;;;;;46.43;28.40;;;;;;;;;;4967905;28;20043;-62
2022/10/04 07:45:21;;;;;;;46.03;29.17;;;;;;;;;;4967424;28;20047;-62
2022/10/04 07:47:47;;;;;;;40.13;26.63;;;;;;;;;;4950476;29;20057;-63
2022/10/04 07:50:18;;;;;;;42.27;27.50;;;;;;;;;;4967512;28;20046;-62
2022/10/04 07:52:51;;;;;;;41.23;25.87;;;;;;;;;;4969066;28;20455;-62
2022/10/04 07:55:31;;;;;;;34.80;24.55;;;;;;;;;;4965008;28;20051;-63
2022/10/04 07:58:06;;;;;;;35.83;24.90;;;;;;;;;;4953978;28;20054;-62
2022/10/04 08:00:38;;;;;;;35.80;24.77;;;;;;;;;;4954837;28;20378;-63
2022/10/04 08:03:14;;;;;;;30.98;21.27;;;;;;;;;;4968341;28;20055;-63
2022/10/04 08:05:42;;;;;;;30.63;21.13;;;;;;;;;;4969890;28;20051;-63
2022/10/04 08:08:27;;;;;;;27.97;20.80;;;;;;;;;;4973242;28;20051;-62
2022/10/04 08:10:55;;;;;;;32.17;21.07;;;;;;;;;;4971544;28;20039;-62
2022/10/04 08:13:33;;;;;;;24.37;19.63;;;;;;;;;;4953545;28;20054;-63
2022/10/04 08:16:03;;;;;;;29.00;18.73;;;;;;;;;;4961868;28;20090;-63
2022/10/04 08:18:35;;;;;;;28.10;19.87;;;;;;;;;;4965545;28;20448;-63
2022/10/04 08:21:04;;;;;;;24.60;17.73;;;;;;;;;;4971448;28;20490;-62
2022/10/04 08:23:49;;;;;;;23.80;16.17;;;;;;;;;;4965501;28;20105;-63
2022/10/04 08:26:34;;;;;;;22.43;15.30;;;;;;;;;;4966012;28;20205;-63
2022/10/04 08:32:02;;;;;;;18.93;14.00;;;;;;;;;;4972398;28;20078;-63
2022/10/04 08:34:47;;;;;;;18.63;12.17;;;;;;;;;;4965679;28;20197;-62
2022/10/04 08:37:23;;;;;;;16.60;11.73;;;;;;;;;;4954510;28;20169;-62
2022/10/04 08:40:07;;;;;;;23.00;12.93;;;;;;;;;;4953783;29;20054;-63
2022/10/04 08:42:52;;;;;;;17.93;12.23;;;;;;;;;;4971812;28;20097;-62
2022/10/04 08:45:19;;;;;;;19.83;11.80;;;;;;;;;;4969676;28;20162;-63
2022/10/04 08:47:51;;;;;;;18.40;10.20;;;;;;;;;;4969793;28;20622;-63
2022/10/04 08:50:29;;;;;;;13.10;9.43;;;;;;;;;;4971783;28;20071;-63
2022/10/04 08:52:58;;;;;;;13.23;8.63;;;;;;;;;;4972576;28;20038;-63
2022/10/04 08:55:40;;;;;;;15.93;7.87;;;;;;;;;;4972840;28;20938;-63
2022/10/04 08:58:09;;;;;;;15.10;7.93;;;;;;;;;;4971836;28;20528;-63
2022/10/04 09:00:47;;;;;;;12.00;7.40;;;;;;;;;;4971679;28;20050;-63
2022/10/04 09:03:34;;;;;;;13.93;7.27;;;;;;;;;;4972298;28;20050;-63
2022/10/04 09:06:00;;;;;;;14.40;7.03;;;;;;;;;;4972524;28;20093;-62
2022/10/04 09:08:29;;;;;;;15.97;7.37;;;;;;;;;;4973194;28;20053;-63
2022/10/04 09:11:04;;;;;;;11.23;6.90;;;;;;;;;;4972468;28;20078;-63
2022/10/04 09:13:49;;;;;;;10.23;6.80;;;;;;;;;;4972342;28;20135;-63
2022/10/04 09:16:35;;;;;;;13.83;7.27;;;;;;;;;;4972844;28;20528;-63
2022/10/04 09:19:01;;;;;;;12.30;6.70;;;;;;;;;;4972542;28;20058;-63
2022/10/04 09:21:36;;;;;;;12.27;6.97;;;;;;;;;;4972887;28;20042;-63
2022/10/04 09:24:03;;;;;;;10.27;6.90;;;;;;;;;;4972844;28;20053;-63
2022/10/04 09:26:32;;;;;;;12.43;7.10;;;;;;;;;;4972169;28;20077;-63
2022/10/04 09:28:58;;;;;;;12.17;6.83;;;;;;;;;;4972005;28;20460;-63
2022/10/04 09:31:43;;;;;;;9.23;6.30;;;;;;;;;;4972488;28;20055;-63
2022/10/04 09:34:32;;;;;;;12.13;6.70;;;;;;;;;;4972681;28;20066;-63
2022/10/04 09:37:00;;;;;;;15.73;6.40;;;;;;;;;;4972680;28;20051;-63
2022/10/04 09:39:51;;;;;;;11.27;6.20;;;;;;;;;;4971384;28;20057;-63
2022/10/04 09:42:20;;;;;;;19.13;7.30;;;;;;;;;;4972385;28;20081;-64
2022/10/04 09:45:19;;;;;;;10.57;5.80;;;;;;;;;;4971266;28;20087;-63
2022/10/04 09:47:47;;;;;;;12.73;5.63;;;;;;;;;;4952311;28;20054;-63
2022/10/04 09:50:16;;;;;;;9.90;5.60;;;;;;;;;;4972752;28;20046;-64
2022/10/04 09:53:01;;;;;;;10.70;5.57;;;;;;;;;;4972288;28;20518;-63
2022/10/04 09:55:41;;;;;;;12.17;6.43;;;;;;;;;;4972119;28;20055;-63
2022/10/04 09:58:21;;;;;;;11.03;6.63;;;;;;;;;;4970925;28;20051;-63
2022/10/04 10:00:54;;;;;;;11.90;6.50;;;;;;;;;;4971997;28;20043;-63
2022/10/04 10:03:26;;;;;;;9.88;5.55;;;;;;;;;;4970091;28;20055;-63
2022/10/04 10:06:00;;;;;;;15.30;6.43;;;;;;;;;;4970775;28;20097;-64
2022/10/04 10:08:26;;;;;;;11.37;6.37;;;;;;;;;;4970550;28;20817;-63
2022/10/04 10:14:13;;;;;;;9.30;5.57;;;;;;;;;;4970377;28;20127;-63
2022/10/04 10:17:01;;;;;;;10.57;5.33;;;;;;;;;;4970833;28;20141;-63
2022/10/04 10:19:56;;;;;;;9.33;5.37;;;;;;;;;;4970844;28;20136;-63
2022/10/04 10:22:43;;;;;;;10.30;5.90;;;;;;;;;;4950382;28;20047;-63
2022/10/04 10:25:17;;;;;;;10.57;6.00;;;;;;;;;;4962897;28;20059;-63
2022/10/04 10:28:02;;;;;;;10.23;5.53;;;;;;;;;;4969189;28;20059;-63
2022/10/04 10:30:47;;;;;;;12.40;5.60;;;;;;;;;;4961280;28;20109;-63
2022/10/04 10:33:25;;;;;;;10.00;5.17;;;;;;;;;;4961974;28;20500;-63
2022/10/04 10:35:51;;;;;;;11.63;5.30;;;;;;;;;;4968301;28;20051;-63
2022/10/04 10:38:30;;;;;;;13.67;6.17;;;;;;;;;;4970834;28;20501;-63
2022/10/04 10:41:23;;;;;;;12.40;5.90;;;;;;;;;;4970477;28;20051;-63
2022/10/04 10:43:49;;;;;;;8.07;4.85;;;;;;;;;;4970659;28;20050;-63
2022/10/04 10:46:22;;;;;;;9.83;4.83;;;;;;;;;;4970630;28;20053;-63
2022/10/04 10:48:48;;;;;;;7.40;4.93;;;;;;;;;;4970708;28;20055;-63
2022/10/04 10:51:37;;;;;;;10.30;5.97;;;;;;;;;;4970486;28;20042;-63
2022/10/04 10:54:06;;;;;;;10.53;5.60;;;;;;;;;;4969710;28;20050;-63
2022/10/04 10:56:49;;;;;;;10.83;5.13;;;;;;;;;;4970403;28;20059;-63
2022/10/04 10:59:15;;;;;;;10.55;4.80;;;;;;;;;;4971139;28;20093;-63
2022/10/04 11:01:58;;;;;;;9.27;5.10;;;;;;;;;;4970610;28;20058;-63
2022/10/04 11:04:24;;;;;;;7.47;4.70;;;;;;;;;;4970828;28;20051;-63
2022/10/04 11:07:03;;;;;;;9.63;4.77;;;;;;;;;;4970720;28;20046;-63
2022/10/04 11:09:53;;;;;;;12.13;5.47;;;;;;;;;;4970662;28;20431;-63
2022/10/04 11:12:38;;;;;;;8.63;5.50;;;;;;;;;;4970665;28;20500;-63
2022/10/04 11:15:32;;;;;;;11.67;5.37;;;;;;;;;;4968933;28;20142;-63
2022/10/04 11:18:06;;;;;;;11.47;5.57;;;;;;;;;;4970706;28;20073;-63
2022/10/04 11:20:32;;;;;;;9.55;5.00;;;;;;;;;;4970483;28;20043;-63
2022/10/04 11:23:16;;;;;;;12.33;5.87;;;;;;;;;;4970726;28;20090;-63
2022/10/04 11:26:01;;;;;;;9.30;4.97;;;;;;;;;;4970068;28;20551;-63
2022/10/04 11:28:27;;;;;;;9.27;5.37;;;;;;;;;;4968997;28;20086;-63
2022/10/04 11:30:53;;;;;;;8.97;4.57;;;;;;;;;;4970456;28;20082;-63
2022/10/04 11:33:22;;;;;;;11.33;5.13;;;;;;;;;;4970146;28;20050;-63
2022/10/04 11:35:54;;;;;;;9.77;4.97;;;;;;;;;;4970360;28;20078;-63
2022/10/04 11:38:29;;;;;;;9.00;4.23;;;;;;;;;;4969519;28;20508;-63
2022/10/04 11:40:58;;;;;;;7.83;4.87;;;;;;;;;;4970488;28;20042;-63
2022/10/04 11:43:45;;;;;;;13.10;6.03;;;;;;;;;;4970476;28;20471;-63
2022/10/04 11:46:32;;;;;;;8.10;4.77;;;;;;;;;;4970516;28;20042;-64
2022/10/04 11:49:17;;;;;;;8.30;4.77;;;;;;;;;;4970103;28;20063;-63
2022/10/04 11:52:03;;;;;;;10.57;6.03;;;;;;;;;;4969775;28;20062;-63
2022/10/04 11:54:35;;;;;;;13.20;5.37;;;;;;;;;;4970248;28;20090;-63
2022/10/04 11:57:04;;;;;;;10.50;5.97;;;;;;;;;;4969777;28;20051;-64
2022/10/04 11:59:57;;;;;;;10.67;5.43;;;;;;;;;;4970108;28;20297;-63
2022/10/04 12:02:27;;;;;;;9.50;5.27;;;;;;;;;;4919587;28;20063;-64
2022/10/04 12:05:03;;;;;;;9.43;4.93;;;;;;;;;;4964756;28;20059;-63
2022/10/04 12:07:38;;;;;;;9.00;5.33;;;;;;;;;;4950558;28;20051;-63
2022/10/04 12:10:27;;;;;;;9.50;5.50;;;;;;;;;;4950964;29;20054;-63
2022/10/04 12:12:56;;;;;;;11.97;5.97;;;;;;;;;;4969235;28;20055;-63
2022/10/04 12:15:51;;;;;;;10.10;4.60;;;;;;;;;;4970031;28;20047;-63
2022/10/04 12:18:38;;;;;;;10.13;4.87;;;;;;;;;;4917209;28;20543;-64
2022/10/04 12:21:19;;;;;;;10.83;5.70;;;;;;;;;;4970066;28;20098;-63
2022/10/04 12:24:03;;;;;;;8.03;5.53;;;;;;;;;;4968281;28;20050;-63
2022/10/04 12:26:51;;;;;;;9.93;5.07;;;;;;;;;;4969599;28;20636;-63
2022/10/04 12:29:41;;;;;;;10.27;4.10;;;;;;;;;;4969033;28;20059;-63
2022/10/04 12:32:27;;;;;;;7.73;3.53;;;;;;;;;;4970010;28;20059;-63
2022/10/04 12:34:53;;;;;;;10.53;3.77;;;;;;;;;;4956567;28;20043;-63
2022/10/04 12:37:19;;;;;;;7.80;3.77;;;;;;;;;;4969471;28;20423;-63
2022/10/04 12:40:04;;;;;;;7.97;3.63;;;;;;;;;;4969820;28;20515;-63
2022/10/04 12:42:34;;;;;;;9.87;4.97;;;;;;;;;;4969172;28;20070;-63
2022/10/04 12:45:18;;;;;;;7.20;4.30;;;;;;;;;;4969646;28;20050;-64
2022/10/04 12:48:04;;;;;;;9.17;4.00;;;;;;;;;;4969496;28;20050;-64
2022/10/04 12:50:48;;;;;;;6.73;4.17;;;;;;;;;;4969069;28;20363;-64
2022/10/04 12:53:14;;;;;;;8.87;4.13;;;;;;;;;;4971785;28;20051;-64
2022/10/04 12:55:53;;;;;;;6.83;3.80;;;;;;;;;;4973117;28;20046;-64
2022/10/04 12:58:38;;;;;;;9.50;3.90;;;;;;;;;;4973009;28;20057;-64
2022/10/04 13:01:16;;;;;;;6.10;3.40;;;;;;;;;;4953348;28;20047;-63
2022/10/04 13:04:01;;;;;;;6.77;3.80;;;;;;;;;;4953108;28;20578;-64
2022/10/04 13:06:33;;;;;;;7.13;3.03;;;;;;;;;;4953089;28;20051;-64
2022/10/04 13:09:08;;;;;;;9.90;3.83;;;;;;;;;;4953541;28;20050;-63
2022/10/04 13:11:48;;;;;;;10.70;3.60;;;;;;;;;;4960948;28;20042;-63
2022/10/04 13:14:24;;;;;;;6.73;3.77;;;;;;;;;;4972412;28;20113;-63
2022/10/04 13:17:00;;;;;;;8.10;3.70;;;;;;;;;;4971676;28;20477;-64
2022/10/04 13:19:35;;;;;;;8.33;3.30;;;;;;;;;;4972259;28;20094;-63
2022/10/04 13:22:06;;;;;;;7.00;3.50;;;;;;;;;;4971435;28;20046;-64
2022/10/04 13:24:57;;;;;;;7.40;3.77;;;;;;;;;;4955793;28;20438;-63
2022/10/04 13:27:33;;;;;;;9.25;3.70;;;;;;;;;;4971939;28;20500;-63
2022/10/04 13:30:17;;;;;;;6.63;3.27;;;;;;;;;;4972031;28;20065;-63
2022/10/04 13:32:49;;;;;;;6.97;3.40;;;;;;;;;;4971219;28;20104;-63
2022/10/04 13:35:27;;;;;;;12.67;3.60;;;;;;;;;;4972390;28;20050;-63
2022/10/04 13:38:12;;;;;;;8.07;3.17;;;;;;;;;;4972082;28;20278;-63
2022/10/04 13:40:54;;;;;;;7.67;2.67;;;;;;;;;;4962635;28;20049;-63
2022/10/04 13:43:49;;;;;;;7.93;3.00;;;;;;;;;;4967715;28;20062;-64
2022/10/04 13:46:25;;;;;;;8.63;3.00;;;;;;;;;;4960346;28;20057;-64
2022/10/04 13:49:00;;;;;;;6.50;2.60;;;;;;;;;;4956628;28;20039;-64
2022/10/04 13:51:38;;;;;;;10.85;4.32;;;;;;;;;;4969751;28;20456;-64
2022/10/04 13:56:58;;;;;;;8.17;3.23;;;;;;;;;;4952597;28;20047;-64
2022/10/04 13:59:29;;;;;;;5.80;2.53;;;;;;;;;;4970981;28;20077;-64
2022/10/04 14:01:57;;;;;;;7.53;3.40;;;;;;;;;;4967026;28;20527;-63
2022/10/04 14:04:52;;;;;;;7.03;3.13;;;;;;;;;;4969886;28;20518;-63
2022/10/04 14:07:18;;;;;;;9.23;3.20;;;;;;;;;;4969944;28;20455;-64
2022/10/04 14:10:02;;;;;;;8.40;2.80;;;;;;;;;;4970711;28;20047;-63
2022/10/04 14:12:32;;;;;;;7.30;2.70;;;;;;;;;;4971359;28;20074;-63
2022/10/04 14:15:03;;;;;;;6.73;2.90;;;;;;;;;;4971301;28;20065;-64
2022/10/04 14:17:47;;;;;;;7.77;2.97;;;;;;;;;;4957975;28;20062;-63
2022/10/04 14:20:31;;;;;;;6.43;3.30;;;;;;;;;;4953202;28;20051;-63
2022/10/04 14:23:11;;;;;;;5.23;2.50;;;;;;;;;;4966212;28;20053;-63
2022/10/04 14:25:46;;;;;;;8.47;3.60;;;;;;;;;;4965758;28;20038;-64
2022/10/04 14:28:32;;;;;;;6.67;3.03;;;;;;;;;;4970613;28;20054;-64
2022/10/04 14:31:10;;;;;;;8.23;3.17;;;;;;;;;;4971642;28;20121;-64
2022/10/04 14:33:39;;;;;;;6.20;3.07;;;;;;;;;;4961756;28;20065;-63
2022/10/04 14:36:14;;;;;;;12.10;3.47;;;;;;;;;;4969671;28;20066;-63
2022/10/04 14:39:00;;;;;;;8.93;3.57;;;;;;;;;;4968644;28;20050;-63
2022/10/04 14:41:26;;;;;;;9.47;3.07;;;;;;;;;;4967025;28;20046;-64
2022/10/04 14:44:11;;;;;;;6.97;3.27;;;;;;;;;;4968623;28;20058;-64
2022/10/04 14:46:44;;;;;;;6.20;3.00;;;;;;;;;;4965765;28;20519;-64
2022/10/04 14:49:10;;;;;;;7.47;3.60;;;;;;;;;;4951612;28;20413;-64
2022/10/04 14:52:01;;;;;;;7.43;3.53;;;;;;;;;;4963713;28;20412;-64
2022/10/04 14:54:47;;;;;;;6.03;3.10;;;;;;;;;;4971373;28;20050;-64
2022/10/04 14:57:25;;;;;;;8.13;3.30;;;;;;;;;;4968557;28;20051;-64
2022/10/04 14:59:54;;;;;;;7.27;3.00;;;;;;;;;;4965982;28;20043;-64
2022/10/04 15:02:30;;;;;;;8.07;2.97;;;;;;;;;;4969900;28;20046;-64
2022/10/04 15:05:15;;;;;;;8.63;3.67;;;;;;;;;;4964793;28;20065;-64
2022/10/04 15:07:45;;;;;;;6.20;2.77;;;;;;;;;;4968651;28;20039;-64
2022/10/04 15:10:17;;;;;;;7.73;2.67;;;;;;;;;;4956226;28;20527;-64
2022/10/04 15:13:02;;;;;;;8.98;2.55;;;;;;;;;;4969090;28;20189;-64
2022/10/04 15:15:35;;;;;;;8.70;3.50;;;;;;;;;;4969834;28;20130;-64
2022/10/04 15:18:11;;;;;;;7.47;2.70;;;;;;;;;;4957089;28;20066;-64
2022/10/04 15:20:56;;;;;;;7.87;3.10;;;;;;;;;;4962794;28;20137;-64
2022/10/04 15:23:34;;;;;;;7.90;3.07;;;;;;;;;;4969512;28;20456;-65
2022/10/04 15:26:00;;;;;;;5.43;2.57;;;;;;;;;;4970961;28;20156;-65